Time;durP1;ratioP1;P1;durP2;ratioP2;P2;SDS_P1;SDS_P2;PMS_P1;PMS_P2;Temp;Humidity;BMP_temperature;BMP_pressure;BME280_temperature;BME280_humidity;BME280_pressure;Samples;Min_cycle;Max_cycle;Signal;HPM_P1;HPM_P2
2021/06/20 00:00:30;;;;;;;;;;;21.40;69.20;;;;;;5039865;28;1300;-66
2021/06/20 00:02:56;;;;;;;;;;;21.40;69.20;;;;;;5053457;28;1898;-63
2021/06/20 00:05:23;;;;;;;;;;;21.40;69.20;;;;;;5054034;28;1103;-64
2021/06/20 00:07:48;;;;;;;;;;;21.40;69.20;;;;;;5053214;28;1111;-63
2021/06/20 00:10:20;;;;;;;;;;;21.40;69.20;;;;;;5053619;28;1134;-63
2021/06/20 00:12:46;;;;;;;;;;;21.40;69.90;;;;;;5053997;28;1051;-64
2021/06/20 00:15:12;;;;;;;;;;;21.40;69.20;;;;;;5053411;28;1141;-64
2021/06/20 00:17:38;;;;;;;;;;;21.40;69.20;;;;;;5052646;28;1147;-66
2021/06/20 00:20:04;;;;;;;;;;;21.40;69.20;;;;;;5053578;28;1188;-64
2021/06/20 00:22:29;;;;;;;;;;;21.40;69.20;;;;;;5053886;28;1902;-64
2021/06/20 00:24:55;;;;;;;;;;;21.40;69.20;;;;;;5053681;28;1165;-64
2021/06/20 00:27:20;;;;;;;;;;;21.40;69.20;;;;;;5052588;28;1086;-64
2021/06/20 00:29:46;;;;;;;;;;;21.40;69.20;;;;;;5053836;28;1151;-64
2021/06/20 00:32:11;;;;;;;;;;;21.40;70.00;;;;;;5053026;28;1201;-64
2021/06/20 00:34:36;;;;;;;;;;;21.40;69.20;;;;;;5052884;28;1071;-64
2021/06/20 00:37:04;;;;;;;;;;;21.40;69.20;;;;;;5053628;28;1263;-64
2021/06/20 00:39:29;;;;;;;;;;;21.40;69.20;;;;;;5053620;28;1067;-64
2021/06/20 00:41:55;;;;;;;;;;;21.40;69.20;;;;;;5052953;28;1959;-65
2021/06/20 00:44:21;;;;;;;;;;;21.40;69.20;;;;;;5052807;28;1052;-64
2021/06/20 00:46:46;;;;;;;;;;;21.40;69.20;;;;;;5053175;28;1122;-64
2021/06/20 00:49:12;;;;;;;;;;;21.40;69.20;;;;;;5053247;28;1126;-64
2021/06/20 00:51:37;;;;;;;;;;;21.40;69.20;;;;;;5053313;28;1282;-64
2021/06/20 00:54:02;;;;;;;;;;;21.40;69.20;;;;;;5051722;28;1076;-63
2021/06/20 00:56:28;;;;;;;;;;;21.40;69.20;;;;;;5053032;28;1169;-64
2021/06/20 00:59:01;;;;;;;;;;;21.40;69.20;;;;;;5052685;28;1075;-64
2021/06/20 01:01:30;;;;;;;;;;;21.40;69.20;;;;;;5052896;28;1373;-66
2021/06/20 01:03:56;;;;;;;;;;;21.40;69.20;;;;;;5051230;28;1950;-64
2021/06/20 01:06:21;;;;;;;;;;;21.40;69.20;;;;;;5053250;28;1091;-65
2021/06/20 01:08:47;;;;;;;;;;;21.40;69.20;;;;;;5052886;28;1043;-64
2021/06/20 01:11:12;;;;;;;;;;;21.40;69.20;;;;;;5053107;28;1287;-65
2021/06/20 01:13:38;;;;;;;;;;;21.40;69.20;;;;;;5052209;28;1083;-64
2021/06/20 01:16:03;;;;;;;;;;;21.40;69.20;;;;;;5052664;28;1165;-65
2021/06/20 01:18:29;;;;;;;;;;;21.40;69.20;;;;;;5052509;28;1685;-64
2021/06/20 01:20:54;;;;;;;;;;;21.40;69.20;;;;;;5052000;28;1291;-64
2021/06/20 01:23:20;;;;;;;;;;;21.40;69.20;;;;;;5049731;28;2341;-65
2021/06/20 01:25:45;;;;;;;;;;;21.40;69.20;;;;;;5051980;28;1097;-64
2021/06/20 01:28:12;;;;;;;;;;;21.40;69.20;;;;;;5052126;28;1068;-64
2021/06/20 01:30:39;;;;;;;;;;;21.40;69.20;;;;;;5052607;28;1327;-63
2021/06/20 01:33:05;;;;;;;;;;;21.40;69.20;;;;;;5050298;28;1048;-64
2021/06/20 01:35:30;;;;;;;;;;;21.40;69.20;;;;;;5052753;28;1174;-64
2021/06/20 01:37:56;;;;;;;;;;;21.40;69.20;;;;;;5052330;28;1059;-65
2021/06/20 01:40:21;;;;;;;;;;;21.40;69.20;;;;;;5051028;28;1359;-63
2021/06/20 01:42:47;;;;;;;;;;;21.40;69.20;;;;;;5056998;22;3881;-72
2021/06/20 01:45:13;;;;;;;;;;;21.40;69.20;;;;;;5048693;28;1090;-74
2021/06/20 01:47:38;;;;;;;;;;;21.40;69.20;;;;;;5050951;28;1364;-72
2021/06/20 01:50:05;;;;;;;;;;;21.40;69.20;;;;;;5052571;28;1429;-73
2021/06/20 01:52:30;;;;;;;;;;;21.50;69.20;;;;;;5037308;28;1383;-73
2021/06/20 01:54:56;;;;;;;;;;;21.40;69.20;;;;;;5030689;28;1308;-73
2021/06/20 01:57:25;;;;;;;;;;;21.40;69.20;;;;;;5026713;28;1476;-74
2021/06/20 01:59:51;;;;;;;;;;;21.50;69.20;;;;;;5028336;28;1486;-73
2021/06/20 02:02:17;;;;;;;;;;;21.40;69.20;;;;;;5031060;28;1899;-72
2021/06/20 02:04:42;;;;;;;;;;;21.40;69.20;;;;;;5030650;28;1493;-72
2021/06/20 02:07:09;;;;;;;;;;;21.40;69.20;;;;;;5032513;28;1553;-72
2021/06/20 02:09:34;;;;;;;;;;;21.40;69.20;;;;;;5030971;28;1560;-72
2021/06/20 02:12:00;;;;;;;;;;;21.40;69.20;;;;;;5032732;28;1718;-72
2021/06/20 02:14:25;;;;;;;;;;;21.40;69.20;;;;;;5031338;28;1429;-72
2021/06/20 02:16:51;;;;;;;;;;;21.40;69.20;;;;;;5036110;28;1154;-72
2021/06/20 02:19:16;;;;;;;;;;;21.50;69.30;;;;;;5035186;28;1382;-71
2021/06/20 02:21:42;;;;;;;;;;;21.40;69.20;;;;;;5030619;28;1502;-72
2021/06/20 02:24:07;;;;;;;;;;;21.50;70.00;;;;;;5035696;28;1910;-72
2021/06/20 02:26:33;;;;;;;;;;;21.40;69.20;;;;;;5034253;28;1278;-71
2021/06/20 02:28:59;;;;;;;;;;;21.40;69.20;;;;;;5035261;28;1452;-72
2021/06/20 02:31:24;;;;;;;;;;;21.50;69.30;;;;;;5035959;28;1370;-72
2021/06/20 02:33:50;;;;;;;;;;;21.50;69.30;;;;;;5033507;28;1380;-74
2021/06/20 02:36:15;;;;;;;;;;;21.50;69.20;;;;;;5035934;28;1146;-73
2021/06/20 02:38:41;;;;;;;;;;;21.50;69.30;;;;;;5035236;28;1142;-73
2021/06/20 02:41:06;;;;;;;;;;;21.50;69.30;;;;;;5035229;28;1418;-74
2021/06/20 02:43:31;;;;;;;;;;;21.50;69.20;;;;;;5033488;28;1902;-73
2021/06/20 02:45:57;;;;;;;;;;;21.50;69.20;;;;;;5035135;28;1483;-72
2021/06/20 02:48:22;;;;;;;;;;;21.50;69.20;;;;;;5035142;28;1383;-73
2021/06/20 02:50:48;;;;;;;;;;;21.50;69.20;;;;;;5035268;28;1452;-71
2021/06/20 02:53:13;;;;;;;;;;;21.40;69.20;;;;;;5034403;28;1395;-72
2021/06/20 02:55:39;;;;;;;;;;;21.50;69.30;;;;;;5033750;28;1147;-73
2021/06/20 02:58:04;;;;;;;;;;;21.50;69.30;;;;;;5035033;28;1637;-73
2021/06/20 03:00:29;;;;;;;;;;;21.50;69.30;;;;;;5035835;28;1444;-72
2021/06/20 03:02:55;;;;;;;;;;;21.50;70.10;;;;;;5034080;28;1898;-73
2021/06/20 03:05:20;;;;;;;;;;;21.50;69.30;;;;;;5033704;28;1123;-73
2021/06/20 03:07:46;;;;;;;;;;;21.50;69.30;;;;;;5035289;28;1147;-73
2021/06/20 03:10:11;;;;;;;;;;;21.50;69.30;;;;;;5050625;28;1084;-72
2021/06/20 03:12:37;;;;;;;;;;;21.50;69.30;;;;;;5035148;28;1219;-73
2021/06/20 03:15:02;;;;;;;;;;;21.50;69.30;;;;;;5034793;28;1076;-73
2021/06/20 03:17:28;;;;;;;;;;;21.50;69.30;;;;;;5034814;28;1126;-72
2021/06/20 03:19:53;;;;;;;;;;;21.50;69.30;;;;;;5033907;28;1076;-73
2021/06/20 03:22:19;;;;;;;;;;;21.50;69.30;;;;;;5028055;28;1882;-73
2021/06/20 03:24:47;;;;;;;;;;;21.40;69.20;;;;;;5033581;28;1064;-73
2021/06/20 03:27:12;;;;;;;;;;;21.50;69.30;;;;;;5032244;28;1076;-72
2021/06/20 03:29:41;;;;;;;;;;;21.50;69.30;;;;;;5033777;28;1061;-73
2021/06/20 03:32:06;;;;;;;;;;;21.50;69.30;;;;;;5034826;28;1273;-73
2021/06/20 03:34:32;;;;;;;;;;;21.40;69.30;;;;;;5034380;28;1095;-72
2021/06/20 03:36:58;;;;;;;;;;;21.50;69.30;;;;;;5034890;28;1123;-73
2021/06/20 03:39:24;;;;;;;;;;;21.50;69.30;;;;;;5034618;28;1134;-73
2021/06/20 03:41:49;;;;;;;;;;;21.50;69.30;;;;;;5034222;28;1906;-73
2021/06/20 03:44:14;;;;;;;;;;;21.50;69.30;;;;;;5034484;28;1024;-72
2021/06/20 03:46:40;;;;;;;;;;;21.50;69.30;;;;;;5033394;28;1100;-73
2021/06/20 03:49:05;;;;;;;;;;;21.50;69.30;;;;;;5034442;28;1083;-73
2021/06/20 03:51:31;;;;;;;;;;;21.50;69.30;;;;;;5033190;28;1268;-73
2021/06/20 03:53:56;;;;;;;;;;;21.40;69.20;;;;;;5032406;28;1155;-73
2021/06/20 03:56:22;;;;;;;;;;;21.40;69.20;;;;;;5034596;28;1044;-73
2021/06/20 03:58:48;;;;;;;;;;;21.50;69.30;;;;;;5033125;28;1175;-73
2021/06/20 04:01:13;;;;;;;;;;;21.50;69.30;;;;;;5034370;28;1310;-72
2021/06/20 04:03:38;;;;;;;;;;;21.50;69.30;;;;;;5033590;28;1906;-72
2021/06/20 04:06:04;;;;;;;;;;;21.50;69.30;;;;;;5034188;28;1071;-72
2021/06/20 04:08:29;;;;;;;;;;;21.50;69.30;;;;;;5034386;28;1163;-73
2021/06/20 04:10:55;;;;;;;;;;;21.50;69.30;;;;;;5032585;28;1286;-73
2021/06/20 04:13:20;;;;;;;;;;;21.40;69.20;;;;;;5033369;28;1155;-73
2021/06/20 04:15:46;;;;;;;;;;;21.40;69.20;;;;;;5033006;28;1202;-72
2021/06/20 04:18:11;;;;;;;;;;;21.50;69.30;;;;;;5033975;28;1214;-73
2021/06/20 04:20:36;;;;;;;;;;;21.50;69.30;;;;;;5027056;28;1076;-72
2021/06/20 04:23:02;;;;;;;;;;;21.50;69.30;;;;;;5032695;28;1973;-72
2021/06/20 04:25:27;;;;;;;;;;;21.50;69.30;;;;;;5032620;28;1060;-73
2021/06/20 04:27:56;;;;;;;;;;;21.50;69.30;;;;;;5032468;28;1147;-73
2021/06/20 04:30:22;;;;;;;;;;;21.40;69.20;;;;;;5034030;28;1154;-73
2021/06/20 04:32:48;;;;;;;;;;;21.50;70.00;;;;;;5031911;28;1269;-72
2021/06/20 04:35:14;;;;;;;;;;;21.50;69.30;;;;;;5032237;28;1068;-73
2021/06/20 04:37:40;;;;;;;;;;;21.50;69.30;;;;;;5033565;28;1143;-73
2021/06/20 04:40:06;;;;;;;;;;;21.50;69.30;;;;;;5032748;28;1080;-72
2021/06/20 04:42:37;;;;;;;;;;;21.50;69.30;;;;;;5033099;28;1981;-72
2021/06/20 04:45:03;;;;;;;;;;;21.50;69.30;;;;;;5033092;28;1047;-72
2021/06/20 04:47:29;;;;;;;;;;;21.50;69.30;;;;;;5015725;28;1420;-73
2021/06/20 04:49:55;;;;;;;;;;;21.50;69.30;;;;;;5033505;28;1103;-72
2021/06/20 04:52:20;;;;;;;;;;;21.50;69.30;;;;;;5048603;28;1274;-72
2021/06/20 04:54:52;;;;;;;;;;;21.50;69.30;;;;;;5031467;28;1064;-72
2021/06/20 04:57:18;;;;;;;;;;;21.50;69.30;;;;;;5033207;28;1015;-72
2021/06/20 04:59:43;;;;;;;;;;;21.50;69.30;;;;;;5015379;28;1361;-74
2021/06/20 05:02:09;;;;;;;;;;;21.50;69.30;;;;;;5031933;28;1914;-72
2021/06/20 05:04:35;;;;;;;;;;;21.50;69.30;;;;;;5047696;28;1190;-73
2021/06/20 05:07:00;;;;;;;;;;;21.50;69.30;;;;;;5033092;28;1186;-72
2021/06/20 05:09:26;;;;;;;;;;;21.50;69.30;;;;;;5032947;28;1084;-73
2021/06/20 05:11:51;;;;;;;;;;;21.50;69.30;;;;;;5031604;28;1306;-71
2021/06/20 05:14:17;;;;;;;;;;;21.50;69.30;;;;;;5031316;28;1072;-72
2021/06/20 05:16:42;;;;;;;;;;;21.50;69.30;;;;;;5033011;28;1123;-73
2021/06/20 05:19:08;;;;;;;;;;;21.50;69.30;;;;;;5032893;28;1045;-73
2021/06/20 05:21:34;;;;;;;;;;;21.50;69.30;;;;;;5026618;28;1357;-72
2021/06/20 05:24:00;;;;;;;;;;;21.50;69.30;;;;;;5031939;28;1902;-73
2021/06/20 05:26:25;;;;;;;;;;;21.50;69.30;;;;;;5032775;28;1072;-72
2021/06/20 05:28:51;;;;;;;;;;;21.50;69.30;;;;;;5032815;28;1067;-73
2021/06/20 05:31:16;;;;;;;;;;;21.50;69.30;;;;;;5033049;28;1353;-72
2021/06/20 05:33:42;;;;;;;;;;;21.50;69.30;;;;;;5032489;28;1048;-72
2021/06/20 05:36:07;;;;;;;;;;;21.50;69.30;;;;;;5032954;28;1174;-72
2021/06/20 05:38:33;;;;;;;;;;;21.50;69.30;;;;;;5019839;28;1861;-69
2021/06/20 05:40:59;;;;;;;;;;;21.50;69.30;;;;;;5031112;28;1883;-70
2021/06/20 05:43:25;;;;;;;;;;;21.50;69.30;;;;;;5038200;28;1955;-69
2021/06/20 05:45:53;;;;;;;;;;;21.50;69.30;;;;;;5043505;28;1104;-70
2021/06/20 05:48:18;;;;;;;;;;;21.50;69.30;;;;;;5030831;28;1509;-71
2021/06/20 05:50:44;;;;;;;;;;;21.50;69.30;;;;;;5031090;28;1071;-70
2021/06/20 05:53:09;;;;;;;;;;;21.50;69.30;;;;;;5030356;28;1366;-69
2021/06/20 05:55:34;;;;;;;;;;;21.50;69.30;;;;;;5031488;28;1063;-69
2021/06/20 05:58:00;;;;;;;;;;;21.50;69.30;;;;;;5021761;28;1059;-69
2021/06/20 06:00:25;;;;;;;;;;;21.50;69.30;;;;;;5029464;28;1112;-69
2021/06/20 06:02:51;;;;;;;;;;;21.50;69.30;;;;;;5029334;28;1902;-69
2021/06/20 06:05:16;;;;;;;;;;;21.50;69.30;;;;;;5036743;28;1357;-72
2021/06/20 06:07:42;;;;;;;;;;;21.50;69.40;;;;;;5038517;28;1058;-72
2021/06/20 06:10:08;;;;;;;;;;;21.50;69.40;;;;;;5029749;28;1096;-70
2021/06/20 06:12:33;;;;;;;;;;;21.50;69.40;;;;;;5031462;28;1224;-70
2021/06/20 06:14:58;;;;;;;;;;;21.50;69.40;;;;;;5028821;28;1048;-72
2021/06/20 06:17:24;;;;;;;;;;;21.50;69.40;;;;;;5030943;28;1161;-72
2021/06/20 06:19:50;;;;;;;;;;;21.50;69.40;;;;;;5030975;28;1103;-71
2021/06/20 06:22:19;;;;;;;;;;;21.50;69.40;;;;;;5023741;28;1910;-71
2021/06/20 06:24:47;;;;;;;;;;;21.50;69.30;;;;;;5028742;28;1072;-70
2021/06/20 06:27:14;;;;;;;;;;;21.50;69.30;;;;;;5030452;28;1147;-71
2021/06/20 06:29:39;;;;;;;;;;;21.50;69.40;;;;;;5031283;28;1072;-70
2021/06/20 06:32:05;;;;;;;;;;;21.50;69.30;;;;;;5030888;28;1248;-70
2021/06/20 06:34:31;;;;;;;;;;;21.50;69.40;;;;;;5030827;28;1115;-71
2021/06/20 06:36:57;;;;;;;;;;;21.50;69.30;;;;;;5031632;28;1063;-70
2021/06/20 06:39:22;;;;;;;;;;;21.50;69.30;;;;;;5032203;28;1087;-71
2021/06/20 06:41:48;;;;;;;;;;;21.50;69.30;;;;;;5030661;28;1434;-71
2021/06/20 06:44:13;;;;;;;;;;;21.50;69.30;;;;;;5045593;28;1930;-70
2021/06/20 06:46:38;;;;;;;;;;;21.50;69.30;;;;;;5030859;28;1416;-71
2021/06/20 06:49:04;;;;;;;;;;;21.50;69.30;;;;;;5030652;28;1142;-71
2021/06/20 06:51:29;;;;;;;;;;;21.50;69.30;;;;;;5030859;28;1259;-72
2021/06/20 06:53:55;;;;;;;;;;;21.50;69.30;;;;;;5029261;28;2178;-72
2021/06/20 06:56:21;;;;;;;;;;;21.50;69.30;;;;;;5043297;28;1438;-72
2021/06/20 06:58:46;;;;;;;;;;;21.50;69.30;;;;;;5035649;28;1429;-71
2021/06/20 07:01:11;;;;;;;;;;;21.50;69.30;;;;;;5052044;28;1596;-72
2021/06/20 07:03:37;;;;;;;;;;;21.50;69.30;;;;;;5034500;28;1948;-72
2021/06/20 07:06:02;;;;;;;;;;;21.50;69.30;;;;;;5035807;28;1064;-72
2021/06/20 07:08:28;;;;;;;;;;;21.50;69.30;;;;;;5034038;28;1379;-72
2021/06/20 07:10:54;;;;;;;;;;;21.50;69.30;;;;;;5035938;28;1591;-72
2021/06/20 07:13:19;;;;;;;;;;;21.50;69.30;;;;;;5034602;28;1460;-72
2021/06/20 07:15:44;;;;;;;;;;;21.50;69.30;;;;;;5034137;28;1936;-72
2021/06/20 07:18:10;;;;;;;;;;;21.50;69.30;;;;;;5046773;28;1135;-72
2021/06/20 07:20:35;;;;;;;;;;;21.50;69.30;;;;;;5033141;28;1177;-72
2021/06/20 07:23:01;;;;;;;;;;;21.50;69.40;;;;;;5032894;28;1914;-72
2021/06/20 07:25:26;;;;;;;;;;;21.50;69.40;;;;;;5048949;28;975;-71
2021/06/20 07:27:52;;;;;;;;;;;21.50;69.40;;;;;;5048353;28;1248;-72
2021/06/20 07:30:18;;;;;;;;;;;21.50;69.30;;;;;;5034995;28;1091;-72
2021/06/20 07:32:43;;;;;;;;;;;21.50;69.30;;;;;;5034634;28;1268;-72
2021/06/20 07:35:09;;;;;;;;;;;21.50;69.30;;;;;;5033071;28;1084;-71
2021/06/20 07:37:34;;;;;;;;;;;21.50;69.30;;;;;;5033361;28;1104;-72
2021/06/20 07:40:00;;;;;;;;;;;21.50;69.30;;;;;;5033001;28;1040;-73
2021/06/20 07:42:25;;;;;;;;;;;21.50;69.30;;;;;;5057140;23;2006;-63
2021/06/20 07:44:51;;;;;;;;;;;21.50;69.40;;;;;;5037862;28;928;-65
2021/06/20 07:47:17;;;;;;;;;;;21.50;69.30;;;;;;5053120;28;1159;-63
2021/06/20 07:49:42;;;;;;;;;;;21.50;69.40;;;;;;5053944;28;1047;-63
2021/06/20 07:52:08;;;;;;;;;;;21.50;69.30;;;;;;5054099;28;1274;-63
2021/06/20 07:54:37;;;;;;;;;;;21.50;69.30;;;;;;5050464;28;2142;-63
2021/06/20 07:57:03;;;;;;;;;;;21.50;69.30;;;;;;5052854;28;1079;-63
2021/06/20 07:59:28;;;;;;;;;;;21.50;69.30;;;;;;5049718;28;1129;-63
2021/06/20 08:01:54;;;;;;;;;;;21.50;69.30;;;;;;5053344;28;1393;-63
2021/06/20 08:04:19;;;;;;;;;;;21.50;69.30;;;;;;5052063;28;1945;-63
2021/06/20 08:06:45;;;;;;;;;;;21.50;69.30;;;;;;5054473;28;1098;-63
2021/06/20 08:09:10;;;;;;;;;;;21.50;69.30;;;;;;5053864;28;1138;-64
2021/06/20 08:11:36;;;;;;;;;;;21.50;69.40;;;;;;5054108;28;1441;-64
2021/06/20 08:14:02;;;;;;;;;;;21.50;69.40;;;;;;5052709;28;1141;-63
2021/06/20 08:16:28;;;;;;;;;;;21.50;69.40;;;;;;5052467;28;1232;-63
2021/06/20 08:18:53;;;;;;;;;;;21.50;69.30;;;;;;5053699;28;1285;-63
2021/06/20 08:21:19;;;;;;;;;;;21.50;69.30;;;;;;5053852;28;1127;-63
2021/06/20 08:23:44;;;;;;;;;;;21.50;69.40;;;;;;5052097;28;1910;-65
2021/06/20 08:26:10;;;;;;;;;;;21.50;69.30;;;;;;5053238;28;1174;-64
2021/06/20 08:28:35;;;;;;;;;;;21.50;69.40;;;;;;5052392;28;1072;-63
2021/06/20 08:31:01;;;;;;;;;;;21.50;69.30;;;;;;5053583;28;1110;-64
2021/06/20 08:33:26;;;;;;;;;;;21.50;69.40;;;;;;5051679;28;1200;-63
2021/06/20 08:35:52;;;;;;;;;;;21.50;69.30;;;;;;5053071;28;1169;-63
2021/06/20 08:38:17;;;;;;;;;;;21.50;69.30;;;;;;5053437;28;1134;-63
2021/06/20 08:40:43;;;;;;;;;;;21.50;69.30;;;;;;5053472;28;1170;-63
2021/06/20 08:43:09;;;;;;;;;;;21.50;69.30;;;;;;5053216;28;1906;-63
2021/06/20 08:45:34;;;;;;;;;;;21.50;69.40;;;;;;5035427;28;1088;-63
2021/06/20 08:48:00;;;;;;;;;;;21.50;69.30;;;;;;5051870;28;1182;-63
2021/06/20 08:50:25;;;;;;;;;;;21.50;69.30;;;;;;5052202;28;1146;-63
2021/06/20 08:52:52;;;;;;;;;;;21.50;69.30;;;;;;5052422;28;1350;-63
2021/06/20 08:55:17;;;;;;;;;;;21.50;69.30;;;;;;5051722;28;1121;-63
2021/06/20 08:57:43;;;;;;;;;;;21.50;69.30;;;;;;5052908;28;1156;-63
2021/06/20 09:00:09;;;;;;;;;;;21.50;69.30;;;;;;5051674;28;1155;-63
2021/06/20 09:02:35;;;;;;;;;;;21.50;69.30;;;;;;5051520;28;1905;-63
2021/06/20 09:05:01;;;;;;;;;;;21.50;69.30;;;;;;5051487;28;1065;-64
2021/06/20 09:07:30;;;;;;;;;;;21.50;69.30;;;;;;5051657;28;1079;-64
2021/06/20 09:09:55;;;;;;;;;;;21.50;69.30;;;;;;5053145;28;1079;-63
2021/06/20 09:12:20;;;;;;;;;;;21.50;69.30;;;;;;5052931;28;1330;-63
2021/06/20 09:14:49;;;;;;;;;;;21.50;69.30;;;;;;5052228;28;1182;-63
2021/06/20 09:17:24;;;;;;;;;;;21.50;69.30;;;;;;5053209;28;1118;-64
2021/06/20 09:19:54;;;;;;;;;;;21.50;69.30;;;;;;5051300;28;1182;-63
2021/06/20 09:22:19;;;;;;;;;;;21.50;69.30;;;;;;5051622;28;1964;-64
2021/06/20 09:24:45;;;;;;;;;;;21.50;69.30;;;;;;5051453;28;1122;-64
2021/06/20 09:27:10;;;;;;;;;;;21.50;69.30;;;;;;5052645;28;1071;-65
2021/06/20 09:29:37;;;;;;;;;;;21.50;69.30;;;;;;5050785;28;1305;-63
2021/06/20 09:32:03;;;;;;;;;;;21.50;69.30;;;;;;5051668;28;1288;-63
2021/06/20 09:34:39;;;;;;;;;;;21.50;69.30;;;;;;5051716;28;1126;-63
2021/06/20 09:37:04;;;;;;;;;;;21.50;69.30;;;;;;5052798;28;1265;-63
2021/06/20 09:39:30;;;;;;;;;;;21.50;69.30;;;;;;5052147;28;1044;-63
2021/06/20 09:41:56;;;;;;;;;;;21.60;69.40;;;;;;5051253;28;1280;-64
2021/06/20 09:44:54;;;;;;;;;;;21.50;69.30;;;;;;5050995;28;1898;-64
2021/06/20 09:47:24;;;;;;;;;;;21.50;69.30;;;;;;5030448;28;1526;-64
2021/06/20 09:49:50;;;;;;;;;;;21.50;69.20;;;;;;5052581;28;960;-63
2021/06/20 09:52:25;;;;;;;;;;;21.60;69.30;;;;;;5051114;28;1232;-62
2021/06/20 09:54:52;;;;;;;;;;;21.50;69.30;;;;;;5051786;28;1054;-63
2021/06/20 09:57:17;;;;;;;;;;;21.50;69.30;;;;;;5052116;28;1059;-63
2021/06/20 09:59:55;;;;;;;;;;;21.50;69.20;;;;;;5052256;28;1098;-63
2021/06/20 10:02:23;;;;;;;;;;;21.50;69.20;;;;;;5052297;28;1971;-65
2021/06/20 10:04:48;;;;;;;;;;;21.60;69.30;;;;;;5051199;28;1098;-65
2021/06/20 10:07:13;;;;;;;;;;;21.50;69.20;;;;;;5052020;28;1055;-63
2021/06/20 10:09:39;;;;;;;;;;;21.50;69.20;;;;;;5050644;28;1263;-62
2021/06/20 10:12:05;;;;;;;;;;;21.60;69.30;;;;;;5052277;28;1204;-64
2021/06/20 10:14:30;;;;;;;;;;;21.50;69.20;;;;;;5049834;28;1076;-63
2021/06/20 10:16:58;;;;;;;;;;;21.50;69.20;;;;;;5051630;28;1067;-63
2021/06/20 10:19:26;;;;;;;;;;;21.50;69.20;;;;;;5050713;28;1143;-64
2021/06/20 10:22:08;;;;;;;;;;;21.60;69.30;;;;;;5051791;28;1383;-63
2021/06/20 10:24:44;;;;;;;;;;;21.50;69.30;;;;;;5051391;28;1181;-63
2021/06/20 10:27:09;;;;;;;;;;;21.50;69.30;;;;;;5051361;28;1059;-64
2021/06/20 10:29:36;;;;;;;;;;;21.60;69.30;;;;;;5051928;28;1141;-63
2021/06/20 10:32:12;;;;;;;;;;;21.60;69.30;;;;;;5052158;28;1273;-64
2021/06/20 10:34:38;;;;;;;;;;;21.50;69.30;;;;;;5051950;28;1141;-63
2021/06/20 10:37:06;;;;;;;;;;;21.60;69.30;;;;;;5054500;28;1087;-64
2021/06/20 10:39:32;;;;;;;;;;;21.60;69.30;;;;;;5056369;28;1115;-62
2021/06/20 10:42:05;;;;;;;;;;;21.50;69.30;;;;;;5054341;28;1324;-65
2021/06/20 10:44:50;;;;;;;;;;;21.60;69.30;;;;;;5055331;28;1123;-63
2021/06/20 10:47:45;;;;;;;;;;;21.60;69.30;;;;;;5055656;28;1083;-63
2021/06/20 10:50:11;;;;;;;;;;;21.50;69.30;;;;;;5042258;28;1267;-63
2021/06/20 10:52:36;;;;;;;;;;;21.60;69.30;;;;;;5055777;28;1231;-63
2021/06/20 10:55:06;;;;;;;;;;;21.50;69.30;;;;;;5055385;28;1067;-63
2021/06/20 10:57:31;;;;;;;;;;;21.50;69.30;;;;;;5054356;28;1068;-63
2021/06/20 10:59:57;;;;;;;;;;;21.60;69.40;;;;;;5054107;28;1473;-63
2021/06/20 11:02:32;;;;;;;;;;;21.50;69.20;;;;;;5055501;28;1898;-63
2021/06/20 11:04:58;;;;;;;;;;;21.60;69.30;;;;;;5054786;28;1153;-63
2021/06/20 11:07:26;;;;;;;;;;;21.60;69.30;;;;;;5055217;28;1110;-63
2021/06/20 11:09:52;;;;;;;;;;;21.50;69.30;;;;;;5054088;28;1064;-63
2021/06/20 11:12:17;;;;;;;;;;;21.50;69.30;;;;;;5055339;28;1354;-63
2021/06/20 11:14:43;;;;;;;;;;;21.60;69.40;;;;;;5054510;28;982;-63
2021/06/20 11:17:09;;;;;;;;;;;21.60;69.30;;;;;;5053623;28;1064;-63
2021/06/20 11:19:34;;;;;;;;;;;21.60;69.30;;;;;;5054783;28;1095;-63
2021/06/20 11:22:01;;;;;;;;;;;21.50;69.30;;;;;;5055167;28;1288;-63
2021/06/20 11:24:28;;;;;;;;;;;21.60;69.30;;;;;;5054094;28;1898;-63
2021/06/20 11:26:57;;;;;;;;;;;21.60;69.40;;;;;;5055235;28;1121;-65
2021/06/20 11:29:23;;;;;;;;;;;21.60;69.30;;;;;;5054483;28;1047;-63
2021/06/20 11:31:50;;;;;;;;;;;21.60;69.30;;;;;;5054692;28;1213;-63
2021/06/20 11:34:15;;;;;;;;;;;21.60;69.30;;;;;;5054193;28;1131;-63
2021/06/20 11:36:41;;;;;;;;;;;21.60;69.50;;;;;;5055208;28;1000;-63
2021/06/20 11:39:10;;;;;;;;;;;21.60;69.40;;;;;;5054774;28;1200;-65
2021/06/20 11:41:42;;;;;;;;;;;21.60;69.40;;;;;;5054950;28;1292;-63
2021/06/20 11:44:07;;;;;;;;;;;21.50;69.40;;;;;;5053937;28;1938;-63
2021/06/20 11:46:33;;;;;;;;;;;21.60;69.50;;;;;;5054766;28;1070;-63
2021/06/20 11:49:06;;;;;;;;;;;21.60;69.40;;;;;;5051728;28;1111;-64
2021/06/20 11:51:34;;;;;;;;;;;21.60;69.40;;;;;;5054265;28;1298;-62
2021/06/20 11:54:06;;;;;;;;;;;21.60;69.50;;;;;;5054052;28;1043;-64
2021/06/20 11:56:32;;;;;;;;;;;21.60;69.40;;;;;;5053395;28;1138;-63
2021/06/20 11:58:58;;;;;;;;;;;21.60;69.40;;;;;;5054227;28;1078;-63
2021/06/20 12:01:23;;;;;;;;;;;21.60;69.40;;;;;;5054621;28;1035;-62
2021/06/20 12:03:48;;;;;;;;;;;21.50;69.40;;;;;;5041043;28;1906;-67
2021/06/20 12:06:14;;;;;;;;;;;21.60;69.50;;;;;;5052228;28;1043;-66
2021/06/20 12:08:39;;;;;;;;;;;21.60;69.40;;;;;;5051785;28;1063;-67
2021/06/20 12:11:05;;;;;;;;;;;21.50;69.30;;;;;;5051659;28;1158;-67
2021/06/20 12:13:40;;;;;;;;;;;21.60;69.40;;;;;;5052452;28;1225;-66
2021/06/20 12:16:05;;;;;;;;;;;21.60;69.40;;;;;;5051571;28;1316;-67
2021/06/20 12:18:31;;;;;;;;;;;21.60;69.40;;;;;;5052508;28;1055;-64
2021/06/20 12:20:56;;;;;;;;;;;21.60;69.50;;;;;;5053138;28;1138;-65
2021/06/20 12:23:22;;;;;;;;;;;21.60;69.70;;;;;;5052254;28;1910;-65
2021/06/20 12:25:48;;;;;;;;;;;21.60;69.40;;;;;;5051091;28;1063;-65
2021/06/20 12:28:14;;;;;;;;;;;21.60;69.40;;;;;;5052688;28;1182;-64
2021/06/20 12:30:41;;;;;;;;;;;21.60;69.40;;;;;;5051348;28;1119;-66
2021/06/20 12:33:13;;;;;;;;;;;21.60;69.40;;;;;;5051672;28;1640;-65
2021/06/20 12:35:38;;;;;;;;;;;21.60;69.50;;;;;;5050821;28;1881;-65
2021/06/20 12:38:16;;;;;;;;;;;21.60;69.40;;;;;;5047077;28;1074;-65
2021/06/20 12:40:41;;;;;;;;;;;21.60;69.40;;;;;;5045348;28;1115;-66
2021/06/20 12:43:11;;;;;;;;;;;21.60;69.40;;;;;;5043616;28;1910;-65
2021/06/20 12:45:37;;;;;;;;;;;21.60;69.40;;;;;;5049886;28;1091;-63
2021/06/20 12:48:11;;;;;;;;;;;21.60;69.40;;;;;;5052029;28;1121;-65
2021/06/20 12:50:37;;;;;;;;;;;21.60;69.50;;;;;;5052328;28;1004;-63
2021/06/20 12:53:02;;;;;;;;;;;21.60;69.40;;;;;;5051851;28;1299;-62
2021/06/20 12:55:29;;;;;;;;;;;21.60;69.50;;;;;;5051646;28;1213;-63
2021/06/20 12:57:56;;;;;;;;;;;21.60;69.40;;;;;;5052081;28;1067;-63
2021/06/20 13:00:22;;;;;;;;;;;21.60;69.50;;;;;;5050156;28;1074;-63
2021/06/20 13:02:51;;;;;;;;;;;21.60;69.50;;;;;;5049362;28;1914;-65
2021/06/20 13:05:29;;;;;;;;;;;21.60;69.40;;;;;;5050967;28;1123;-64
2021/06/20 13:07:54;;;;;;;;;;;21.60;69.40;;;;;;5048831;28;1263;-63
2021/06/20 13:10:20;;;;;;;;;;;21.60;69.40;;;;;;5049949;28;1483;-64
2021/06/20 13:12:45;;;;;;;;;;;21.60;69.50;;;;;;5051140;28;1268;-65
2021/06/20 13:15:12;;;;;;;;;;;21.60;69.40;;;;;;5049216;28;1334;-62
2021/06/20 13:17:37;;;;;;;;;;;21.60;69.40;;;;;;5051485;28;1102;-64
2021/06/20 13:20:03;;;;;;;;;;;21.60;69.40;;;;;;5047828;28;1079;-64
2021/06/20 13:22:29;;;;;;;;;;;21.60;69.40;;;;;;5051070;28;1975;-65
2021/06/20 13:24:54;;;;;;;;;;;21.60;69.40;;;;;;5050999;28;1059;-64
2021/06/20 13:27:19;;;;;;;;;;;21.60;69.40;;;;;;5050476;28;1087;-64
2021/06/20 13:29:45;;;;;;;;;;;21.60;69.50;;;;;;5052040;28;1121;-63
2021/06/20 13:32:10;;;;;;;;;;;21.60;69.50;;;;;;5052851;28;1225;-64
2021/06/20 13:34:36;;;;;;;;;;;21.60;69.40;;;;;;5052132;28;1098;-62
2021/06/20 13:37:01;;;;;;;;;;;21.60;69.50;;;;;;5051424;28;1134;-62
2021/06/20 13:39:27;;;;;;;;;;;21.60;69.40;;;;;;5051812;28;1138;-64
2021/06/20 13:41:52;;;;;;;;;;;21.60;69.50;;;;;;5050996;28;1388;-63
2021/06/20 13:44:18;;;;;;;;;;;21.60;69.50;;;;;;5050933;28;1910;-63
2021/06/20 13:46:44;;;;;;;;;;;21.60;69.50;;;;;;5051539;28;1063;-63
2021/06/20 13:49:09;;;;;;;;;;;21.60;69.40;;;;;;5063615;22;3893;-69
2021/06/20 13:51:35;;;;;;;;;;;21.60;69.50;;;;;;5038902;28;948;-69
2021/06/20 13:54:00;;;;;;;;;;;21.60;69.40;;;;;;5034014;28;1064;-69
2021/06/20 13:56:26;;;;;;;;;;;21.60;69.50;;;;;;5037527;28;1127;-70
2021/06/20 13:58:51;;;;;;;;;;;21.60;69.50;;;;;;5043902;28;1936;-70
2021/06/20 14:01:17;;;;;;;;;;;21.60;69.50;;;;;;5041271;28;1349;-70
2021/06/20 14:03:42;;;;;;;;;;;21.60;69.40;;;;;;5040372;28;1918;-70
2021/06/20 14:06:07;;;;;;;;;;;21.60;69.40;;;;;;5041939;28;1173;-70
2021/06/20 14:08:34;;;;;;;;;;;21.60;69.40;;;;;;5042421;28;1432;-70
2021/06/20 14:10:59;;;;;;;;;;;21.60;69.50;;;;;;5042037;28;1104;-70
2021/06/20 14:13:25;;;;;;;;;;;21.60;69.40;;;;;;5046038;28;1095;-70
2021/06/20 14:15:50;;;;;;;;;;;21.60;69.40;;;;;;5048263;28;1311;-70
2021/06/20 14:18:16;;;;;;;;;;;21.60;69.40;;;;;;5046532;28;1315;-69
2021/06/20 14:20:41;;;;;;;;;;;21.60;69.40;;;;;;5048002;28;1355;-70
2021/06/20 14:23:07;;;;;;;;;;;21.60;69.50;;;;;;5048607;28;1961;-70
2021/06/20 14:25:32;;;;;;;;;;;21.60;69.50;;;;;;5046419;28;1119;-70